Time;durP1;ratioP1;P1;durP2;ratioP2;P2;SDS_P1;SDS_P2;PMS_P1;PMS_P2;Temp;Humidity;BMP_temperature;BMP_pressure;BME280_temperature;BME280_humidity;BME280_pressure;Samples;Min_cycle;Max_cycle;Signal;HPM_P1;HPM_P2
2023/04/14 00:01:21;;;;;;;9.63;3.90;;;;;;;;;;7399775;19;20482;-74
2023/04/14 00:03:46;;;;;;;5.82;3.15;;;;;;;;;;7400041;19;20483;-74
2023/04/14 00:06:12;;;;;;;11.23;3.30;;;;;;;;;;7401156;19;20002;-74
2023/04/14 00:08:37;;;;;;;10.45;3.70;;;;;;;;;;7400685;19;20002;-75
2023/04/14 00:11:02;;;;;;;9.95;3.80;;;;;;;;;;7399122;19;20320;-74
2023/04/14 00:13:28;;;;;;;9.38;3.83;;;;;;;;;;7400380;19;20026;-74
2023/04/14 00:15:54;;;;;;;9.60;3.75;;;;;;;;;;7400743;19;20089;-74
2023/04/14 00:18:19;;;;;;;6.50;3.80;;;;;;;;;;7399101;19;20012;-74
2023/04/14 00:20:46;;;;;;;9.48;4.05;;;;;;;;;;7398174;19;20013;-75
2023/04/14 00:23:11;;;;;;;10.38;4.07;;;;;;;;;;7388439;19;20006;-74
2023/04/14 00:25:36;;;;;;;9.38;4.10;;;;;;;;;;7393915;19;20002;-75
2023/04/14 00:28:02;;;;;;;10.25;3.70;;;;;;;;;;7392738;19;20034;-74
2023/04/14 00:30:28;;;;;;;10.98;4.10;;;;;;;;;;7391869;19;19998;-74
2023/04/14 00:32:53;;;;;;;11.20;4.10;;;;;;;;;;7390523;19;20002;-74
2023/04/14 00:35:18;;;;;;;9.32;3.80;;;;;;;;;;7393202;19;20002;-74
2023/04/14 00:37:44;;;;;;;10.60;4.00;;;;;;;;;;7392643;19;20003;-73
2023/04/14 00:40:09;;;;;;;7.00;3.70;;;;;;;;;;7391084;19;20002;-73
2023/04/14 00:42:45;;;;;;;7.95;3.88;;;;;;;;;;7390919;19;19999;-75
2023/04/14 00:45:11;;;;;;;8.80;4.03;;;;;;;;;;7392755;19;20476;-75
2023/04/14 00:47:45;;;;;;;7.90;4.28;;;;;;;;;;7392433;19;20003;-75
2023/04/14 00:50:12;;;;;;;8.80;4.22;;;;;;;;;;7391127;19;20006;-75
2023/04/14 00:52:38;;;;;;;11.68;4.18;;;;;;;;;;7390577;19;20042;-74
2023/04/14 00:55:05;;;;;;;8.52;3.92;;;;;;;;;;7392055;19;20021;-75
2023/04/14 00:57:30;;;;;;;9.75;4.45;;;;;;;;;;7391650;19;20541;-75
2023/04/14 00:59:59;;;;;;;9.65;4.30;;;;;;;;;;7391870;19;20006;-75
2023/04/14 01:02:25;;;;;;;11.23;4.80;;;;;;;;;;7391350;19;20006;-74
2023/04/14 01:04:50;;;;;;;9.90;4.80;;;;;;;;;;7391810;19;20400;-75
2023/04/14 01:07:18;;;;;;;10.23;5.03;;;;;;;;;;7391685;19;20007;-75
2023/04/14 01:09:43;;;;;;;11.43;4.82;;;;;;;;;;7391713;19;20013;-74
2023/04/14 01:12:38;;;;;;;13.27;4.90;;;;;;;;;;7389246;19;20006;-74
2023/04/14 01:15:24;;;;;;;11.93;4.18;;;;;;;;;;7391592;19;20003;-74
2023/04/14 01:18:15;;;;;;;9.50;4.10;;;;;;;;;;7391369;19;20010;-75
2023/04/14 01:20:43;;;;;;;10.73;4.40;;;;;;;;;;7390758;19;20011;-74
2023/04/14 01:23:20;;;;;;;12.73;4.03;;;;;;;;;;7393421;19;20013;-74
2023/04/14 01:26:10;;;;;;;11.77;4.30;;;;;;;;;;7393169;19;19998;-74
2023/04/14 01:29:16;;;;;;;8.88;3.75;;;;;;;;;;7391083;19;20030;-74
2023/04/14 01:31:52;;;;;;;8.32;3.92;;;;;;;;;;7388847;19;20086;-74
2023/04/14 01:34:32;;;;;;;9.38;4.32;;;;;;;;;;7388724;19;20003;-74
2023/04/14 01:37:05;;;;;;;9.55;4.18;;;;;;;;;;7391337;19;19998;-74
2023/04/14 01:39:35;;;;;;;9.60;4.10;;;;;;;;;;7391031;19;20002;-74
2023/04/14 01:42:05;;;;;;;10.95;4.22;;;;;;;;;;7392445;19;20002;-74
2023/04/14 01:44:32;;;;;;;11.43;5.10;;;;;;;;;;7388604;19;20006;-74
2023/04/14 01:47:03;;;;;;;11.40;4.88;;;;;;;;;;7391136;19;20007;-74
2023/04/14 01:49:31;;;;;;;9.73;4.95;;;;;;;;;;7390342;19;20006;-74
2023/04/14 01:51:57;;;;;;;12.82;4.75;;;;;;;;;;7385420;19;20002;-74
2023/04/14 01:54:23;;;;;;;11.95;4.57;;;;;;;;;;7390131;19;19998;-74
2023/04/14 01:56:51;;;;;;;13.60;4.85;;;;;;;;;;7390530;19;20007;-74
2023/04/14 01:59:19;;;;;;;9.55;4.50;;;;;;;;;;7390624;19;20007;-74
2023/04/14 02:01:45;;;;;;;8.88;4.53;;;;;;;;;;7388277;19;20018;-74
2023/04/14 02:04:11;;;;;;;12.07;5.10;;;;;;;;;;7390650;19;20040;-74
2023/04/14 02:06:38;;;;;;;13.60;5.25;;;;;;;;;;7390757;19;20010;-75
2023/04/14 02:09:09;;;;;;;12.02;5.30;;;;;;;;;;7389947;19;20068;-75
2023/04/14 02:11:35;;;;;;;14.52;5.53;;;;;;;;;;7388113;19;20030;-75
2023/04/14 02:14:01;;;;;;;11.45;4.57;;;;;;;;;;7390020;19;20022;-74
2023/04/14 02:16:28;;;;;;;12.10;5.93;;;;;;;;;;7389342;19;20010;-74
2023/04/14 02:18:53;;;;;;;16.90;6.15;;;;;;;;;;7389175;19;20548;-73
2023/04/14 02:21:21;;;;;;;15.00;5.50;;;;;;;;;;7390325;19;20032;-73
2023/04/14 02:23:47;;;;;;;13.63;5.05;;;;;;;;;;7387939;19;19999;-73
2023/04/14 02:26:16;;;;;;;13.82;5.07;;;;;;;;;;7389289;19;20005;-73
2023/04/14 02:29:20;;;;;;;10.27;4.95;;;;;;;;;;7389088;19;19998;-73
2023/04/14 02:31:58;;;;;;;12.35;4.65;;;;;;;;;;7381872;19;19998;-73
2023/04/14 02:34:29;;;;;;;13.48;5.13;;;;;;;;;;7391032;19;19990;-73
2023/04/14 02:36:56;;;;;;;9.38;4.57;;;;;;;;;;7388934;19;20003;-74
2023/04/14 02:39:29;;;;;;;11.35;5.45;;;;;;;;;;7393897;19;20428;-74
2023/04/14 02:42:01;;;;;;;12.68;5.43;;;;;;;;;;7388759;19;19998;-74
2023/04/14 02:44:36;;;;;;;10.65;5.10;;;;;;;;;;7384578;19;20045;-74
2023/04/14 02:47:06;;;;;;;11.93;5.38;;;;;;;;;;7388165;19;19999;-74
2023/04/14 02:49:35;;;;;;;15.73;6.47;;;;;;;;;;7388176;19;20007;-74
2023/04/14 02:52:04;;;;;;;10.93;5.60;;;;;;;;;;7385205;19;20021;-74
2023/04/14 02:54:33;;;;;;;12.40;5.95;;;;;;;;;;7386237;19;20079;-73
2023/04/14 02:57:00;;;;;;;13.20;6.25;;;;;;;;;;7389920;19;20480;-73
2023/04/14 02:59:28;;;;;;;14.57;6.35;;;;;;;;;;7389217;19;20009;-73
2023/04/14 03:01:54;;;;;;;15.38;6.22;;;;;;;;;;7399215;19;20002;-74
2023/04/14 03:04:20;;;;;;;12.30;7.22;;;;;;;;;;7385815;19;20027;-74
2023/04/14 03:06:47;;;;;;;11.05;5.90;;;;;;;;;;7385898;19;20486;-73
2023/04/14 03:09:13;;;;;;;14.10;6.68;;;;;;;;;;7387151;19;20055;-73
2023/04/14 03:11:40;;;;;;;12.60;6.07;;;;;;;;;;7383892;19;20006;-74
2023/04/14 03:14:06;;;;;;;12.15;6.40;;;;;;;;;;7388178;19;20383;-73
2023/04/14 03:16:33;;;;;;;13.88;5.45;;;;;;;;;;7387412;19;20471;-73
2023/04/14 03:19:02;;;;;;;13.25;5.63;;;;;;;;;;7387217;19;19998;-74
2023/04/14 03:21:29;;;;;;;11.05;5.95;;;;;;;;;;7385739;19;20002;-73
2023/04/14 03:23:55;;;;;;;13.82;5.90;;;;;;;;;;7384400;19;20038;-74
2023/04/14 03:26:23;;;;;;;14.38;5.95;;;;;;;;;;7385474;19;20347;-75
2023/04/14 03:28:52;;;;;;;13.18;6.28;;;;;;;;;;7387190;19;20014;-74
2023/04/14 03:31:18;;;;;;;14.43;6.57;;;;;;;;;;7386817;19;20003;-74
2023/04/14 03:33:45;;;;;;;16.13;7.45;;;;;;;;;;7387687;19;20011;-74
2023/04/14 03:36:11;;;;;;;14.90;7.55;;;;;;;;;;7386928;19;20037;-72
2023/04/14 03:38:38;;;;;;;13.95;7.22;;;;;;;;;;7386485;19;20383;-74
2023/04/14 03:41:05;;;;;;;14.75;7.05;;;;;;;;;;7385148;19;19999;-74
2023/04/14 03:43:32;;;;;;;15.18;7.40;;;;;;;;;;7385502;19;20015;-74
2023/04/14 03:45:57;;;;;;;17.92;7.20;;;;;;;;;;7386458;19;20510;-74
2023/04/14 03:48:25;;;;;;;15.18;7.15;;;;;;;;;;7386953;19;19991;-75
2023/04/14 03:50:51;;;;;;;24.15;8.05;;;;;;;;;;7385749;19;20062;-74
2023/04/14 03:53:17;;;;;;;16.42;7.93;;;;;;;;;;7384543;19;20472;-74
2023/04/14 03:55:45;;;;;;;20.55;8.25;;;;;;;;;;7387543;19;20167;-74
2023/04/14 03:58:12;;;;;;;14.20;7.72;;;;;;;;;;7394092;19;20429;-74
2023/04/14 04:00:38;;;;;;;17.60;8.35;;;;;;;;;;7393560;19;19991;-73
2023/04/14 04:03:04;;;;;;;16.70;8.18;;;;;;;;;;7392659;19;20455;-74
2023/04/14 04:05:30;;;;;;;16.40;8.35;;;;;;;;;;7395375;19;20468;-74
2023/04/14 04:08:01;;;;;;;19.80;8.48;;;;;;;;;;7397191;19;19987;-73
2023/04/14 04:10:30;;;;;;;18.33;8.20;;;;;;;;;;7392483;19;20001;-73
2023/04/14 04:12:57;;;;;;;16.98;7.85;;;;;;;;;;7391815;19;20003;-74
2023/04/14 04:15:23;;;;;;;18.00;8.60;;;;;;;;;;7393913;19;19998;-73
2023/04/14 04:17:50;;;;;;;16.50;7.70;;;;;;;;;;7392604;19;20015;-74
2023/04/14 04:20:16;;;;;;;14.75;7.53;;;;;;;;;;7392557;19;20077;-73
2023/04/14 04:22:43;;;;;;;19.83;8.38;;;;;;;;;;7392977;19;19990;-73
2023/04/14 04:25:10;;;;;;;22.02;8.07;;;;;;;;;;7388866;19;20017;-74
2023/04/14 04:27:36;;;;;;;15.23;7.53;;;;;;;;;;7393424;19;20032;-73
2023/04/14 04:30:05;;;;;;;19.35;7.32;;;;;;;;;;7393066;19;19998;-73
2023/04/14 04:32:31;;;;;;;13.50;7.00;;;;;;;;;;7391564;19;20021;-73
2023/04/14 04:34:57;;;;;;;13.63;7.15;;;;;;;;;;7396848;19;20393;-74
2023/04/14 04:37:27;;;;;;;15.35;7.25;;;;;;;;;;7392733;19;19995;-74
2023/04/14 04:39:55;;;;;;;14.73;7.68;;;;;;;;;;7398611;19;20021;-74
2023/04/14 04:42:21;;;;;;;17.20;7.38;;;;;;;;;;7390478;19;20009;-73
2023/04/14 04:44:46;;;;;;;17.33;7.70;;;;;;;;;;7393005;19;20451;-73
2023/04/14 04:47:12;;;;;;;19.55;8.05;;;;;;;;;;7392406;19;20492;-74
2023/04/14 04:49:37;;;;;;;15.90;7.72;;;;;;;;;;7393380;19;19991;-73
2023/04/14 04:52:02;;;;;;;13.98;6.80;;;;;;;;;;7393719;19;20337;-73
2023/04/14 04:54:28;;;;;;;16.73;7.82;;;;;;;;;;7392051;19;20006;-74
2023/04/14 04:56:53;;;;;;;17.50;8.43;;;;;;;;;;7391178;19;20005;-73
2023/04/14 04:59:18;;;;;;;15.98;7.80;;;;;;;;;;7395285;19;20017;-73
2023/04/14 05:01:43;;;;;;;14.57;7.40;;;;;;;;;;7393823;19;20002;-73
2023/04/14 05:04:09;;;;;;;17.10;7.85;;;;;;;;;;7390514;19;20344;-73
2023/04/14 05:06:38;;;;;;;17.23;7.63;;;;;;;;;;7394957;19;20046;-73
2023/04/14 05:09:04;;;;;;;15.25;7.68;;;;;;;;;;7394048;19;20462;-73
2023/04/14 05:11:30;;;;;;;14.70;7.55;;;;;;;;;;7391468;19;19999;-72
2023/04/14 05:13:55;;;;;;;17.27;8.43;;;;;;;;;;7392985;19;19991;-72
2023/04/14 05:16:21;;;;;;;15.68;8.02;;;;;;;;;;7394919;19;19997;-74
2023/04/14 05:18:46;;;;;;;17.00;7.70;;;;;;;;;;7394551;19;19990;-72
2023/04/14 05:21:12;;;;;;;13.63;7.30;;;;;;;;;;7389742;19;19990;-72
2023/04/14 05:23:41;;;;;;;17.48;8.05;;;;;;;;;;7393440;19;20003;-73
2023/04/14 05:26:06;;;;;;;15.82;7.78;;;;;;;;;;7394828;19;19995;-73
2023/04/14 05:28:32;;;;;;;18.30;7.15;;;;;;;;;;7395642;19;19991;-74
2023/04/14 05:30:57;;;;;;;13.90;6.90;;;;;;;;;;7393969;19;19999;-73
2023/04/14 05:33:23;;;;;;;13.15;6.13;;;;;;;;;;7394343;19;19995;-73
2023/04/14 05:35:51;;;;;;;11.90;6.72;;;;;;;;;;7394313;19;20475;-72
2023/04/14 05:38:17;;;;;;;13.07;6.65;;;;;;;;;;7393080;19;20480;-72
2023/04/14 05:40:43;;;;;;;12.77;6.20;;;;;;;;;;7391191;19;20003;-74
2023/04/14 05:43:08;;;;;;;15.57;7.07;;;;;;;;;;7391890;19;20098;-75
2023/04/14 05:45:34;;;;;;;15.07;6.80;;;;;;;;;;7394544;19;19994;-73
2023/04/14 05:47:59;;;;;;;15.20;6.70;;;;;;;;;;7394077;19;19995;-74
2023/04/14 05:50:25;;;;;;;11.95;5.63;;;;;;;;;;7392725;19;20436;-73
2023/04/14 05:52:51;;;;;;;11.77;6.13;;;;;;;;;;7386120;19;20018;-73
2023/04/14 05:55:17;;;;;;;11.82;6.90;;;;;;;;;;7392891;19;20114;-73
2023/04/14 05:57:42;;;;;;;10.43;5.88;;;;;;;;;;7393580;19;19991;-73
2023/04/14 06:00:09;;;;;;;11.68;5.93;;;;;;;;;;7393265;19;20022;-74
2023/04/14 06:02:35;;;;;;;12.02;5.88;;;;;;;;;;7390893;19;19995;-74
2023/04/14 06:05:00;;;;;;;14.75;6.55;;;;;;;;;;7388560;19;20054;-74
2023/04/14 06:07:26;;;;;;;11.80;6.13;;;;;;;;;;7393883;19;20047;-73
2023/04/14 06:09:52;;;;;;;12.13;5.85;;;;;;;;;;7394684;19;19994;-75
2023/04/14 06:12:17;;;;;;;12.27;6.18;;;;;;;;;;7391768;19;19999;-74
2023/04/14 06:14:46;;;;;;;12.63;6.45;;;;;;;;;;7398779;19;19990;-73
2023/04/14 06:17:11;;;;;;;10.32;5.45;;;;;;;;;;7395211;19;20338;-74
2023/04/14 06:19:37;;;;;;;10.70;4.57;;;;;;;;;;7391645;19;19995;-74
2023/04/14 06:22:02;;;;;;;11.90;5.38;;;;;;;;;;7389893;19;19990;-74
2023/04/14 06:24:28;;;;;;;12.30;6.30;;;;;;;;;;7391033;19;19995;-65
2023/04/14 06:26:53;;;;;;;12.27;5.80;;;;;;;;;;7392276;19;20476;-63
2023/04/14 06:29:18;;;;;;;11.88;5.97;;;;;;;;;;7389722;19;20026;-63
2023/04/14 06:31:44;;;;;;;10.77;5.55;;;;;;;;;;7387566;19;20022;-73
2023/04/14 06:34:09;;;;;;;10.25;3.92;;;;;;;;;;7389129;19;19995;-74
2023/04/14 06:36:35;;;;;;;7.10;3.40;;;;;;;;;;7390098;19;20410;-73
2023/04/14 06:39:00;;;;;;;9.40;3.65;;;;;;;;;;7384379;19;19999;-73
2023/04/14 06:41:25;;;;;;;8.40;3.25;;;;;;;;;;7384244;19;19998;-73
2023/04/14 06:43:51;;;;;;;8.70;3.50;;;;;;;;;;7386609;19;20006;-72
2023/04/14 06:46:16;;;;;;;9.60;3.85;;;;;;;;;;7388309;19;20029;-73
2023/04/14 06:48:42;;;;;;;9.48;4.82;;;;;;;;;;7388121;19;20022;-74
2023/04/14 06:51:12;;;;;;;10.10;3.17;;;;;;;;;;7387066;19;20025;-73
2023/04/14 06:53:37;;;;;;;9.93;4.18;;;;;;;;;;7387877;19;20023;-73
2023/04/14 06:56:04;;;;;;;8.40;4.30;;;;;;;;;;7388626;19;20008;-75
2023/04/14 06:58:30;;;;;;;9.32;4.30;;;;;;;;;;7388155;19;20003;-73
2023/04/14 07:01:00;;;;;;;11.68;4.68;;;;;;;;;;7386643;19;20037;-73
2023/04/14 07:03:26;;;;;;;10.85;4.85;;;;;;;;;;7387451;19;20502;-74
2023/04/14 07:05:52;;;;;;;12.50;4.60;;;;;;;;;;7391143;19;20393;-75
2023/04/14 07:08:18;;;;;;;11.18;4.93;;;;;;;;;;7388276;19;20470;-73
2023/04/14 07:10:44;;;;;;;9.60;4.32;;;;;;;;;;7388949;19;20003;-70
2023/04/14 07:13:09;;;;;;;10.48;4.68;;;;;;;;;;7374604;19;20356;-66
2023/04/14 07:15:34;;;;;;;9.18;4.45;;;;;;;;;;7384972;19;20007;-66
2023/04/14 07:18:00;;;;;;;9.50;4.53;;;;;;;;;;7377473;19;20408;-70
2023/04/14 07:20:25;;;;;;;8.27;4.85;;;;;;;;;;7382708;19;20460;-64
2023/04/14 07:22:51;;;;;;;10.65;4.25;;;;;;;;;;7380064;19;20009;-66
2023/04/14 07:25:17;;;;;;;7.38;4.10;;;;;;;;;;7383908;19;19994;-65
2023/04/14 07:27:42;;;;;;;8.27;4.07;;;;;;;;;;7384217;19;20006;-67
2023/04/14 07:30:08;;;;;;;7.45;4.50;;;;;;;;;;7383778;19;20027;-66
2023/04/14 07:32:33;;;;;;;14.30;4.60;;;;;;;;;;7388580;19;20022;-65
2023/04/14 07:34:59;;;;;;;10.48;4.10;;;;;;;;;;7392881;19;20006;-64
2023/04/14 07:37:24;;;;;;;7.95;4.20;;;;;;;;;;7392231;19;20428;-65
2023/04/14 07:39:50;;;;;;;10.40;4.63;;;;;;;;;;7395085;19;20013;-65
2023/04/14 07:42:15;;;;;;;8.77;3.90;;;;;;;;;;7389242;19;20353;-66
2023/04/14 07:44:41;;;;;;;10.40;3.72;;;;;;;;;;7388409;19;20009;-65
2023/04/14 07:47:06;;;;;;;10.90;4.60;;;;;;;;;;7392934;19;20030;-65
2023/04/14 07:49:32;;;;;;;9.35;4.25;;;;;;;;;;7386396;19;20002;-65
2023/04/14 07:51:58;;;;;;;9.27;4.75;;;;;;;;;;7385605;19;20026;-65
2023/04/14 07:54:24;;;;;;;9.82;4.00;;;;;;;;;;7391388;19;20007;-66
2023/04/14 07:56:49;;;;;;;9.63;4.10;;;;;;;;;;7389458;19;20328;-66
2023/04/14 07:59:15;;;;;;;8.55;3.60;;;;;;;;;;7389233;19;20006;-65
2023/04/14 08:01:41;;;;;;;10.20;3.90;;;;;;;;;;7389747;19;19999;-66
2023/04/14 08:04:06;;;;;;;8.55;3.90;;;;;;;;;;7392737;19;20002;-67
2023/04/14 08:06:32;;;;;;;8.27;3.83;;;;;;;;;;7385407;19;20464;-67
2023/04/14 08:08:57;;;;;;;13.38;4.28;;;;;;;;;;7394424;19;20026;-67
2023/04/14 08:11:22;;;;;;;9.75;4.38;;;;;;;;;;7387452;19;20006;-67
2023/04/14 08:13:49;;;;;;;10.88;4.60;;;;;;;;;;7393385;19;19999;-67
2023/04/14 08:16:14;;;;;;;13.57;4.72;;;;;;;;;;7392613;19;20006;-67
2023/04/14 08:18:41;;;;;;;11.75;4.65;;;;;;;;;;7391127;19;19998;-66
2023/04/14 08:21:06;;;;;;;9.90;4.30;;;;;;;;;;7389513;19;20002;-75
2023/04/14 08:23:32;;;;;;;9.32;3.70;;;;;;;;;;7389949;19;19998;-75
2023/04/14 08:25:57;;;;;;;12.77;3.85;;;;;;;;;;7392391;19;19994;-75
2023/04/14 08:28:23;;;;;;;9.90;4.55;;;;;;;;;;7385347;19;20427;-75
2023/04/14 08:30:48;;;;;;;9.70;4.78;;;;;;;;;;7388088;19;20002;-73
2023/04/14 08:33:14;;;;;;;12.50;4.20;;;;;;;;;;7389553;19;20074;-74
2023/04/14 08:35:39;;;;;;;7.80;4.25;;;;;;;;;;7388596;19;20018;-70
2023/04/14 08:38:05;;;;;;;12.63;4.60;;;;;;;;;;7391390;19;20013;-73
2023/04/14 08:40:41;;;;;;;11.43;3.88;;;;;;;;;;7389199;19;19998;-74
2023/04/14 08:43:07;;;;;;;10.52;3.70;;;;;;;;;;7386147;19;20006;-72
2023/04/14 08:45:33;;;;;;;7.95;4.00;;;;;;;;;;7391412;19;20026;-69
2023/04/14 08:47:59;;;;;;;11.77;4.45;;;;;;;;;;7388570;19;20002;-71
2023/04/14 08:50:28;;;;;;;11.95;4.05;;;;;;;;;;7389652;19;20062;-71
2023/04/14 08:52:58;;;;;;;12.82;4.20;;;;;;;;;;7387939;19;20452;-69
2023/04/14 08:55:24;;;;;;;10.45;4.20;;;;;;;;;;7388444;19;19995;-69
2023/04/14 08:57:50;;;;;;;10.57;4.60;;;;;;;;;;7387398;19;19998;-69
2023/04/14 09:00:17;;;;;;;8.30;3.97;;;;;;;;;;7389806;19;20009;-69
2023/04/14 09:02:43;;;;;;;8.32;3.97;;;;;;;;;;7387600;19;20531;-69
2023/04/14 09:05:10;;;;;;;9.02;3.80;;;;;;;;;;7390390;19;19994;-69
2023/04/14 09:07:36;;;;;;;9.90;3.97;;;;;;;;;;7390804;19;20082;-69
2023/04/14 09:10:02;;;;;;;10.90;3.83;;;;;;;;;;7389865;19;20013;-69
2023/04/14 09:12:29;;;;;;;12.00;3.70;;;;;;;;;;7386425;19;20472;-70
2023/04/14 09:14:57;;;;;;;11.40;3.85;;;;;;;;;;7388343;19;20014;-68
2023/04/14 09:17:25;;;;;;;9.40;3.97;;;;;;;;;;7388779;19;20002;-69
2023/04/14 09:19:50;;;;;;;10.82;3.70;;;;;;;;;;7387882;19;20095;-69
2023/04/14 09:22:17;;;;;;;10.30;4.05;;;;;;;;;;7387855;19;20014;-67
2023/04/14 09:24:42;;;;;;;10.50;4.40;;;;;;;;;;7388355;19;20082;-68
2023/04/14 09:27:08;;;;;;;12.10;4.53;;;;;;;;;;7390088;19;20007;-68
2023/04/14 09:29:35;;;;;;;12.02;4.45;;;;;;;;;;7387574;19;20006;-68
2023/04/14 09:32:01;;;;;;;9.55;4.47;;;;;;;;;;7388480;19;20428;-68
2023/04/14 09:34:26;;;;;;;10.88;4.28;;;;;;;;;;7389553;19;20002;-68
2023/04/14 09:37:01;;;;;;;9.13;3.92;;;;;;;;;;7389246;19;20010;-68
2023/04/14 09:39:27;;;;;;;9.20;3.78;;;;;;;;;;7388516;19;20086;-68
2023/04/14 09:41:53;;;;;;;9.75;3.90;;;;;;;;;;7384813;19;20467;-68
2023/04/14 09:44:19;;;;;;;7.85;4.00;;;;;;;;;;7385127;19;20103;-68
2023/04/14 09:47:00;;;;;;;7.68;3.60;;;;;;;;;;7388673;19;20023;-68
2023/04/14 09:49:28;;;;;;;10.93;3.78;;;;;;;;;;7388341;19;20497;-68
2023/04/14 09:51:56;;;;;;;11.13;4.28;;;;;;;;;;7386465;19;20559;-69
2023/04/14 09:54:26;;;;;;;9.50;3.95;;;;;;;;;;7388476;19;20022;-69
2023/04/14 09:56:55;;;;;;;8.95;4.07;;;;;;;;;;7388079;19;20110;-69
2023/04/14 09:59:39;;;;;;;13.65;3.88;;;;;;;;;;7387037;19;20010;-69
2023/04/14 10:02:08;;;;;;;8.38;2.90;;;;;;;;;;7386656;19;20011;-68
2023/04/14 10:04:35;;;;;;;8.13;3.10;;;;;;;;;;7387678;19;20362;-68
2023/04/14 10:07:01;;;;;;;11.02;4.05;;;;;;;;;;7388805;19;20006;-69
2023/04/14 10:09:27;;;;;;;9.57;3.75;;;;;;;;;;7389276;19;20104;-69
2023/04/14 10:12:11;;;;;;;7.38;3.28;;;;;;;;;;7384772;19;20007;-69
2023/04/14 10:14:37;;;;;;;7.75;3.45;;;;;;;;;;7385119;19;20014;-69
2023/04/14 10:17:03;;;;;;;8.45;2.92;;;;;;;;;;7388586;19;20015;-70
2023/04/14 10:19:28;;;;;;;9.88;3.63;;;;;;;;;;7386394;19;20015;-70
2023/04/14 10:21:54;;;;;;;8.30;3.58;;;;;;;;;;7387272;19;20022;-68
2023/04/14 10:24:20;;;;;;;7.38;3.25;;;;;;;;;;7386849;19;20007;-67
2023/04/14 10:26:48;;;;;;;7.75;2.75;;;;;;;;;;7386279;19;20032;-67
2023/04/14 10:29:13;;;;;;;8.77;3.22;;;;;;;;;;7385366;19;20165;-66
2023/04/14 10:31:42;;;;;;;10.20;3.28;;;;;;;;;;7386692;19;20018;-67
2023/04/14 10:34:12;;;;;;;8.27;3.13;;;;;;;;;;7386465;19;20016;-67
2023/04/14 10:36:38;;;;;;;9.95;3.65;;;;;;;;;;7388030;19;20506;-68
2023/04/14 10:39:05;;;;;;;6.43;2.60;;;;;;;;;;7387645;19;20007;-69
2023/04/14 10:41:42;;;;;;;11.65;3.10;;;;;;;;;;7383001;19;20382;-67
2023/04/14 10:44:36;;;;;;;9.93;2.97;;;;;;;;;;7385106;19;20010;-68
2023/04/14 10:47:03;;;;;;;7.18;2.65;;;;;;;;;;7388871;19;20015;-68
2023/04/14 10:49:33;;;;;;;7.80;2.63;;;;;;;;;;7386706;19;20006;-68
2023/04/14 10:52:25;;;;;;;7.10;2.57;;;;;;;;;;7387044;19;20090;-67
2023/04/14 10:54:57;;;;;;;7.60;3.00;;;;;;;;;;7380113;19;20598;-66
2023/04/14 10:57:23;;;;;;;7.55;2.60;;;;;;;;;;7380665;19;20026;-67
2023/04/14 10:59:53;;;;;;;6.70;2.60;;;;;;;;;;7382592;19;20571;-67
2023/04/14 11:02:26;;;;;;;8.13;2.85;;;;;;;;;;7384864;19;20118;-71
2023/04/14 11:05:10;;;;;;;8.55;3.20;;;;;;;;;;7384142;19;19999;-73
2023/04/14 11:07:43;;;;;;;8.00;2.65;;;;;;;;;;7383417;19;20006;-73
2023/04/14 11:10:30;;;;;;;5.45;2.33;;;;;;;;;;7382898;19;20010;-74
2023/04/14 11:13:00;;;;;;;7.85;2.40;;;;;;;;;;7381717;19;20491;-74
2023/04/14 11:16:01;;;;;;;7.97;2.35;;;;;;;;;;7384627;19;19999;-74
2023/04/14 11:18:30;;;;;;;8.55;2.53;;;;;;;;;;7385894;19;20010;-74
2023/04/14 11:21:03;;;;;;;8.20;3.17;;;;;;;;;;7384289;19;20019;-74
2023/04/14 11:23:28;;;;;;;7.68;2.70;;;;;;;;;;7385095;19;20002;-74
2023/04/14 11:25:55;;;;;;;7.57;2.60;;;;;;;;;;7386674;19;20002;-73
2023/04/14 11:28:31;;;;;;;8.32;2.70;;;;;;;;;;7386498;19;20023;-74
2023/04/14 11:30:58;;;;;;;8.45;2.33;;;;;;;;;;7383262;19;19999;-74
2023/04/14 11:33:29;;;;;;;7.10;2.80;;;;;;;;;;7385386;19;20007;-74
2023/04/14 11:35:55;;;;;;;6.70;2.00;;;;;;;;;;7385265;19;20791;-74
2023/04/14 11:38:21;;;;;;;5.85;2.10;;;;;;;;;;7386029;19;20027;-74
2023/04/14 11:40:50;;;;;;;8.13;2.30;;;;;;;;;;7383907;19;20002;-74
2023/04/14 11:43:16;;;;;;;9.80;2.20;;;;;;;;;;7385869;19;20022;-74
2023/04/14 11:45:43;;;;;;;9.90;2.53;;;;;;;;;;7387209;19;20006;-75
2023/04/14 11:48:11;;;;;;;9.10;2.40;;;;;;;;;;7389145;19;20062;-74
2023/04/14 11:50:37;;;;;;;7.82;2.55;;;;;;;;;;7385370;19;19998;-73
2023/04/14 11:53:14;;;;;;;8.82;2.25;;;;;;;;;;7389860;19;20009;-74
2023/04/14 11:55:44;;;;;;;13.68;2.70;;;;;;;;;;7386713;19;20006;-74
2023/04/14 11:58:12;;;;;;;7.95;2.63;;;;;;;;;;7386888;19;20002;-74
2023/04/14 12:00:38;;;;;;;12.88;2.53;;;;;;;;;;7385194;19;20341;-74
2023/04/14 12:03:04;;;;;;;10.18;2.35;;;;;;;;;;7385190;19;20063;-73
2023/04/14 12:05:31;;;;;;;8.30;2.20;;;;;;;;;;7387143;19;20002;-74
2023/04/14 12:08:06;;;;;;;8.95;2.25;;;;;;;;;;7386658;19;20012;-74
2023/04/14 12:10:36;;;;;;;7.60;2.00;;;;;;;;;;7383552;19;20102;-73
2023/04/14 12:13:06;;;;;;;5.85;1.88;;;;;;;;;;7385305;19;20066;-74
2023/04/14 12:15:35;;;;;;;6.50;1.95;;;;;;;;;;7387029;19;20515;-74
2023/04/14 12:18:02;;;;;;;7.95;1.75;;;;;;;;;;7392898;19;20005;-75
2023/04/14 12:20:38;;;;;;;6.20;1.90;;;;;;;;;;7392339;19;20006;-75
2023/04/14 12:23:04;;;;;;;9.65;2.25;;;;;;;;;;7395841;19;19999;-75
2023/04/14 12:25:33;;;;;;;9.02;1.88;;;;;;;;;;7393757;19;20478;-74
2023/04/14 12:28:01;;;;;;;8.48;2.00;;;;;;;;;;7393416;19;20002;-74
2023/04/14 12:30:27;;;;;;;7.28;2.13;;;;;;;;;;7391752;19;19998;-74
2023/04/14 12:32:52;;;;;;;7.32;2.05;;;;;;;;;;7391418;19;20010;-74
2023/04/14 12:35:22;;;;;;;6.10;1.80;;;;;;;;;;7393203;19;20344;-74
2023/04/14 12:37:49;;;;;;;6.25;1.92;;;;;;;;;;7395960;19;20078;-74
2023/04/14 12:40:15;;;;;;;6.43;1.60;;;;;;;;;;7391572;19;20352;-74
2023/04/14 12:42:59;;;;;;;5.50;1.50;;;;;;;;;;7391194;19;20062;-74
2023/04/14 12:45:24;;;;;;;6.40;2.28;;;;;;;;;;7396264;19;20040;-74
2023/04/14 12:47:52;;;;;;;5.93;2.03;;;;;;;;;;7395516;19;19991;-75
2023/04/14 12:50:28;;;;;;;5.50;1.83;;;;;;;;;;7390633;19;20006;-75
2023/04/14 12:52:58;;;;;;;7.45;1.73;;;;;;;;;;7387814;19;20408;-74
2023/04/14 12:55:26;;;;;;;5.35;1.80;;;;;;;;;;7392318;19;20003;-74
2023/04/14 12:57:52;;;;;;;7.57;2.20;;;;;;;;;;7389874;19;19998;-74
2023/04/14 13:00:20;;;;;;;6.18;1.52;;;;;;;;;;7389116;19;20002;-75
2023/04/14 13:02:45;;;;;;;5.85;1.73;;;;;;;;;;7389885;19;19999;-76
2023/04/14 13:05:11;;;;;;;7.93;1.83;;;;;;;;;;7390147;19;20343;-74
2023/04/14 13:07:36;;;;;;;6.05;1.60;;;;;;;;;;7391600;19;19999;-74
2023/04/14 13:10:02;;;;;;;7.00;2.05;;;;;;;;;;7391199;19;20022;-75
2023/04/14 13:12:27;;;;;;;6.13;1.50;;;;;;;;;;7389462;19;19998;-74
2023/04/14 13:14:53;;;;;;;6.22;1.65;;;;;;;;;;7393028;19;20470;-75
2023/04/14 13:17:18;;;;;;;4.47;1.50;;;;;;;;;;7391549;19;20010;-76
2023/04/14 13:19:44;;;;;;;4.95;1.80;;;;;;;;;;7392173;19;20010;-76
2023/04/14 13:22:09;;;;;;;4.10;1.40;;;;;;;;;;7390031;19;20346;-76
2023/04/14 13:24:35;;;;;;;3.47;1.50;;;;;;;;;;7389352;19;19997;-75
2023/04/14 13:27:00;;;;;;;4.28;1.60;;;;;;;;;;7390997;19;19991;-74
2023/04/14 13:29:26;;;;;;;5.97;1.70;;;;;;;;;;7390131;19;20002;-74
2023/04/14 13:31:51;;;;;;;7.28;1.70;;;;;;;;;;7389043;19;20062;-75
2023/04/14 13:34:16;;;;;;;6.95;1.77;;;;;;;;;;7391167;19;19994;-75
2023/04/14 13:36:42;;;;;;;5.68;1.50;;;;;;;;;;7390740;19;19995;-74
2023/04/14 13:39:07;;;;;;;4.65;1.40;;;;;;;;;;7390990;19;20018;-75
2023/04/14 13:41:32;;;;;;;5.35;1.40;;;;;;;;;;7388722;19;20279;-75
2023/04/14 13:43:58;;;;;;;5.72;1.52;;;;;;;;;;7389218;19;20001;-76
2023/04/14 13:46:23;;;;;;;5.38;1.48;;;;;;;;;;7392189;19;20002;-74
2023/04/14 13:48:48;;;;;;;4.85;1.40;;;;;;;;;;7391940;19;20440;-75
2023/04/14 13:51:14;;;;;;;5.88;1.55;;;;;;;;;;7388942;19;19995;-75
2023/04/14 13:53:39;;;;;;;5.32;1.50;;;;;;;;;;7389073;19;20007;-75
2023/04/14 13:56:05;;;;;;;5.88;1.42;;;;;;;;;;7389856;19;20009;-74
2023/04/14 13:58:31;;;;;;;5.75;1.50;;;;;;;;;;7390129;19;19999;-74
2023/04/14 14:00:56;;;;;;;4.82;1.58;;;;;;;;;;7392582;19;20005;-75
2023/04/14 14:03:22;;;;;;;9.40;1.45;;;;;;;;;;7387610;19;20444;-75
2023/04/14 14:05:47;;;;;;;5.68;1.55;;;;;;;;;;7389642;19;19994;-74
2023/04/14 14:08:14;;;;;;;4.65;1.52;;;;;;;;;;7389643;19;19995;-75
2023/04/14 14:10:40;;;;;;;7.03;1.50;;;;;;;;;;7388190;19;20047;-67
2023/04/14 14:13:05;;;;;;;6.25;1.45;;;;;;;;;;7389072;19;19991;-65
2023/04/14 14:15:30;;;;;;;3.47;1.92;;;;;;;;;;7392243;19;20057;-71
2023/04/14 14:17:56;;;;;;;4.97;1.55;;;;;;;;;;7393351;19;20011;-77
2023/04/14 14:20:21;;;;;;;4.45;1.40;;;;;;;;;;7387904;19;20368;-76
2023/04/14 14:22:47;;;;;;;10.77;2.30;;;;;;;;;;7388857;19;20135;-77
2023/04/14 14:25:12;;;;;;;4.18;1.38;;;;;;;;;;7390069;19;20074;-77
2023/04/14 14:27:38;;;;;;;7.22;1.60;;;;;;;;;;7392953;19;20369;-76
2023/04/14 14:30:03;;;;;;;4.03;1.25;;;;;;;;;;7391112;19;20023;-77
2023/04/14 14:32:29;;;;;;;4.50;1.25;;;;;;;;;;7387699;19;20006;-79
2023/04/14 14:34:55;;;;;;;8.60;1.63;;;;;;;;;;7389980;19;20333;-76
2023/04/14 14:37:21;;;;;;;3.67;1.45;;;;;;;;;;7389410;19;19995;-64
2023/04/14 14:39:46;;;;;;;6.32;1.60;;;;;;;;;;7387412;19;20716;-64